Time;durP1;ratioP1;P1;durP2;ratioP2;P2;SDS_P1;SDS_P2;PMS_P1;PMS_P2;Temp;Humidity;BMP_temperature;BMP_pressure;BME280_temperature;BME280_humidity;BME280_pressure;Samples;Min_cycle;Max_cycle;Signal;HPM_P1;HPM_P2
2022/01/23 00:00:33;;;;;;;5.70;2.90;;;2.20;99.90;;;;;;4969894;28;20204;-72
2022/01/23 00:03:02;;;;;;;6.07;2.80;;;2.20;99.90;;;;;;4967951;28;20022;-73
2022/01/23 00:05:38;;;;;;;5.43;3.08;;;2.20;99.90;;;;;;4966918;28;20535;-72
2022/01/23 00:08:05;;;;;;;5.82;3.38;;;2.20;99.90;;;;;;4972338;28;20603;-69
2022/01/23 00:10:32;;;;;;;6.38;2.90;;;2.20;99.90;;;;;;4967951;28;20480;-70
2022/01/23 00:13:16;;;;;;;4.22;2.97;;;2.20;99.90;;;;;;4970304;28;20069;-71
2022/01/23 00:18:28;;;;;;;4.78;2.92;;;2.20;99.90;;;;;;4965339;28;20375;-71
2022/01/23 00:20:55;;;;;;;4.55;2.97;;;2.20;99.90;;;;;;4968148;28;20026;-74
2022/01/23 00:23:32;;;;;;;4.75;2.67;;;2.20;99.90;;;;;;4967021;28;20015;-73
2022/01/23 00:31:29;;;;;;;3.80;2.50;;;2.20;99.90;;;;;;4967888;28;20539;-71
2022/01/23 00:33:56;;;;;;;2.88;2.35;;;2.20;99.90;;;;;;4967342;28;20034;-71
2022/01/23 00:36:25;;;;;;;;;;;2.20;99.90;;;;;;4969751;28;20017;-70
2022/01/23 00:38:51;;;;;;;5.03;2.50;;;2.20;99.90;;;;;;4962926;28;19918;-72
2022/01/23 00:41:18;;;;;;;4.07;2.40;;;2.20;99.90;;;;;;4969204;28;20848;-70
2022/01/23 00:43:45;;;;;;;;;;;2.30;99.90;;;;;;4972084;28;20026;-70
2022/01/23 00:51:18;;;;;;;4.43;2.33;;;2.30;99.90;;;;;;4967298;28;20030;-72
2022/01/23 00:53:43;;;;;;;4.90;2.53;;;2.30;99.90;;;;;;4970688;28;20045;-70
2022/01/23 00:56:09;;;;;;;6.70;2.97;;;2.30;99.90;;;;;;4966411;28;20022;-71
2022/01/23 00:58:35;;;;;;;5.40;2.30;;;2.30;99.90;;;;;;4968662;28;20121;-72
2022/01/23 01:01:01;;;;;;;4.07;2.50;;;2.30;99.90;;;;;;4967176;28;20027;-72
2022/01/23 01:03:26;;;;;;;2.90;2.20;;;2.40;99.90;;;;;;4967315;28;20014;-75
2022/01/23 01:05:52;;;;;;;4.80;3.10;;;2.40;99.90;;;;;;4962315;28;20025;-73
2022/01/23 01:08:20;;;;;;;6.60;3.50;;;2.40;99.90;;;;;;4968382;28;20022;-75
2022/01/23 01:10:59;;;;;;;5.80;3.50;;;2.40;99.90;;;;;;4971584;28;20026;-73
2022/01/23 01:13:30;;;;;;;6.30;3.55;;;2.40;99.90;;;;;;4974296;28;20053;-74
2022/01/23 01:16:34;;;;;;;4.82;3.20;;;2.40;99.90;;;;;;4969586;28;21354;-70
2022/01/23 01:35:34;;;;;;;7.38;4.07;;;2.40;99.90;;;;;;4971856;28;20087;-72
2022/01/23 01:37:59;;;;;;;5.22;3.60;;;2.40;99.90;;;;;;4969837;28;20014;-73
2022/01/23 01:40:26;;;;;;;7.27;4.33;;;2.40;99.90;;;;;;4973606;28;20614;-72
2022/01/23 01:42:53;;;;;;;8.23;4.63;;;2.40;99.90;;;;;;4969681;28;20109;-73
2022/01/23 01:45:26;;;;;;;;;;;2.40;99.90;;;;;;4970694;28;20034;-70
2022/01/23 01:47:59;;;;;;;9.90;4.75;;;2.40;99.90;;;;;;4968918;28;19906;-71
2022/01/23 01:50:25;;;;;;;8.15;4.85;;;2.40;99.90;;;;;;4970284;28;20026;-72
2022/01/23 01:52:50;;;;;;;9.10;5.13;;;2.40;99.90;;;;;;4971268;28;20057;-71
2022/01/23 01:55:24;;;;;;;8.83;5.27;;;2.50;99.90;;;;;;4970931;28;20057;-71
2022/01/23 01:57:55;;;;;;;7.90;4.72;;;2.50;99.90;;;;;;4971897;28;20801;-71
2022/01/23 02:08:29;;;;;;;9.50;5.53;;;2.60;99.90;;;;;;4955449;28;21404;-71
2022/01/23 02:11:14;;;;;;;7.88;4.63;;;2.60;99.90;;;;;;4965760;28;20022;-72
2022/01/23 02:13:49;;;;;;;10.98;5.07;;;2.60;99.90;;;;;;4970706;28;20030;-72
2022/01/23 02:25:15;;;;;;;9.80;4.88;;;2.90;99.90;;;;;;4972392;28;20042;-71
2022/01/23 02:57:22;;;;;;;12.30;6.90;;;2.90;99.90;;;;;;4964179;28;20123;-71
2022/01/23 02:59:49;;;;;;;8.57;5.55;;;2.90;99.90;;;;;;4972099;28;20033;-72
2022/01/23 03:02:29;;;;;;;10.68;7.03;;;2.90;99.90;;;;;;4968181;28;20018;-71
2022/01/23 03:05:00;;;;;;;8.90;5.93;;;2.80;99.90;;;;;;4969328;28;20022;-73
2022/01/23 03:07:50;;;;;;;9.85;6.65;;;2.80;99.90;;;;;;4971640;28;20030;-73
2022/01/23 03:10:23;;;;;;;9.38;5.88;;;2.80;99.90;;;;;;4964787;28;20045;-74
2022/01/23 03:31:18;;;;;;;8.37;4.97;;;2.80;99.90;;;;;;4966905;28;20031;-71
2022/01/23 03:33:45;;;;;;;7.95;5.13;;;2.80;99.90;;;;;;4967247;28;20124;-71
2022/01/23 03:36:10;;;;;;;8.32;5.22;;;2.80;99.90;;;;;;4967516;28;20022;-76
2022/01/23 03:38:36;;;;;;;6.40;4.40;;;2.80;99.90;;;;;;4966509;28;20023;-80
2022/01/23 03:41:02;;;;;;;7.00;4.43;;;2.80;99.90;;;;;;4970704;28;20018;-75
2022/01/23 03:43:32;;;;;;;6.97;3.92;;;2.80;99.90;;;;;;4968172;28;20085;-78
2022/01/23 03:51:15;;;;;;;6.20;3.58;;;2.80;99.90;;;;;;4968302;28;20821;-75
2022/01/23 03:53:41;;;;;;;5.63;3.70;;;2.80;99.90;;;;;;4966197;28;20029;-73
2022/01/23 03:56:07;;;;;;;6.50;3.20;;;2.90;99.90;;;;;;4973882;28;20022;-73
2022/01/23 03:58:34;;;;;;;6.05;3.65;;;2.80;99.90;;;;;;4965496;28;20066;-71
2022/01/23 04:01:00;;;;;;;5.20;3.28;;;2.90;99.90;;;;;;4969089;28;20030;-72
2022/01/23 04:03:26;;;;;;;4.80;3.35;;;2.90;99.90;;;;;;4970594;28;20951;-72
2022/01/23 04:05:53;;;;;;;4.97;3.17;;;2.80;99.90;;;;;;4959976;28;20031;-76
2022/01/23 04:08:20;;;;;;;5.72;3.00;;;2.80;99.90;;;;;;4964108;28;20022;-71
2022/01/23 04:10:47;;;;;;;3.47;2.60;;;2.90;99.90;;;;;;4971520;28;20026;-71
2022/01/23 04:13:36;;;;;;;3.58;2.50;;;2.90;99.90;;;;;;4966382;28;20050;-73
2022/01/23 04:17:08;;;;;;;3.85;2.55;;;2.90;99.90;;;;;;4964673;28;20026;-74
2022/01/23 04:19:17;;;;;;;6.57;2.95;;;2.90;99.90;;;;;;4961473;28;20554;-72
2022/01/23 05:00:13;;;;;;;2.90;2.00;;;2.70;99.90;;;;;;4968391;28;20030;-71
2022/01/23 05:05:39;;;;;;;3.42;1.77;;;2.80;99.90;;;;;;4939615;28;20028;-72
2022/01/23 05:08:08;;;;;;;2.20;1.90;;;2.70;99.90;;;;;;4959442;28;20045;-72
2022/01/23 05:10:34;;;;;;;4.97;2.67;;;2.70;99.90;;;;;;4970469;28;20428;-73
2022/01/23 05:13:01;;;;;;;2.80;1.97;;;2.70;99.90;;;;;;4965988;28;20090;-74
2022/01/23 05:15:26;;;;;;;3.70;2.42;;;2.80;99.90;;;;;;4967293;28;20051;-71
2022/01/23 05:17:52;;;;;;;3.03;2.00;;;2.80;99.90;;;;;;4969064;28;20129;-71
2022/01/23 05:20:20;;;;;;;2.80;1.80;;;2.80;99.90;;;;;;4963480;28;20436;-72
2022/01/23 05:22:49;;;;;;;3.65;1.80;;;2.70;99.90;;;;;;4965349;28;20014;-73
2022/01/23 05:25:25;;;;;;;3.67;2.25;;;2.70;99.90;;;;;;4964935;28;20022;-71
2022/01/23 05:27:52;;;;;;;4.63;2.72;;;2.70;99.90;;;;;;4969267;28;20125;-72
2022/01/23 05:30:19;;;;;;;3.05;1.92;;;2.70;99.90;;;;;;4967853;28;20037;-72
2022/01/23 05:32:45;;;;;;;3.78;2.40;;;2.70;99.90;;;;;;4969975;28;20056;-71
2022/01/23 05:35:13;;;;;;;4.07;2.43;;;2.70;99.90;;;;;;4963192;28;20042;-72
2022/01/23 05:37:40;;;;;;;5.15;2.40;;;2.70;99.90;;;;;;4963793;28;20027;-72
2022/01/23 05:40:10;;;;;;;4.28;2.45;;;2.70;99.90;;;;;;4965416;28;20026;-77
2022/01/23 05:42:37;;;;;;;3.05;2.33;;;2.60;99.90;;;;;;4969735;28;20038;-72
2022/01/23 05:45:03;;;;;;;3.80;2.40;;;2.60;99.90;;;;;;4967492;28;20448;-72
2022/01/23 05:47:28;;;;;;;3.75;2.20;;;2.60;99.90;;;;;;4965942;28;20052;-73
2022/01/23 05:49:54;;;;;;;4.23;2.07;;;2.60;99.90;;;;;;4965537;28;20027;-72
2022/01/23 05:52:20;;;;;;;3.23;2.00;;;2.50;99.90;;;;;;4963676;28;20863;-71
2022/01/23 05:54:45;;;;;;;3.43;2.13;;;2.50;99.90;;;;;;4967748;28;20041;-71
2022/01/23 05:57:12;;;;;;;3.80;2.23;;;2.60;99.90;;;;;;4962032;28;20144;-71
2022/01/23 05:59:38;;;;;;;3.25;2.50;;;2.60;99.90;;;;;;4971130;28;20720;-73
2022/01/23 06:02:06;;;;;;;3.63;2.20;;;2.70;99.90;;;;;;4972124;28;20076;-72
2022/01/23 06:04:32;;;;;;;2.28;1.95;;;2.60;99.90;;;;;;4970589;28;20034;-73
2022/01/23 06:06:59;;;;;;;2.53;2.20;;;2.60;99.90;;;;;;4972397;28;20089;-75
2022/01/23 06:09:25;;;;;;;2.53;1.80;;;2.60;99.90;;;;;;4963374;28;20019;-76
2022/01/23 06:11:52;;;;;;;3.25;2.30;;;2.60;99.90;;;;;;4971641;28;20054;-73
2022/01/23 06:14:18;;;;;;;2.50;2.10;;;2.60;99.90;;;;;;4958857;28;20096;-73
2022/01/23 06:16:44;;;;;;;3.65;2.60;;;2.60;99.90;;;;;;4965596;28;20046;-83
2022/01/23 06:19:09;;;;;;;4.38;2.10;;;2.50;99.90;;;;;;4966791;28;20046;-74
2022/01/23 06:21:41;;;;;;;4.13;2.87;;;2.50;99.90;;;;;;4973062;28;20369;-76
2022/01/23 06:24:15;;;;;;;4.65;2.70;;;2.50;99.90;;;;;;4968275;28;20022;-78
2022/01/23 06:26:43;;;;;;;2.53;1.70;;;2.60;99.90;;;;;;4968260;28;20026;-74
2022/01/23 06:29:10;;;;;;;3.22;2.50;;;2.60;99.90;;;;;;4967492;28;20023;-76
2022/01/23 06:31:37;;;;;;;3.55;2.72;;;2.60;99.90;;;;;;4973344;28;20061;-75
2022/01/23 06:34:05;;;;;;;4.07;2.33;;;2.60;99.90;;;;;;4968385;28;20026;-73
2022/01/23 06:36:31;;;;;;;4.30;2.65;;;2.60;99.90;;;;;;4967155;28;20046;-72
2022/01/23 06:38:58;;;;;;;4.07;2.78;;;2.60;99.90;;;;;;4965166;28;20077;-72
2022/01/23 06:41:24;;;;;;;3.70;2.40;;;2.70;99.90;;;;;;4971355;28;20646;-75
2022/01/23 06:43:50;;;;;;;3.97;2.50;;;2.70;99.90;;;;;;4974040;28;20472;-71
2022/01/23 06:46:16;;;;;;;2.93;2.17;;;2.70;99.90;;;;;;4955979;28;20019;-72
2022/01/23 06:48:41;;;;;;;5.57;3.22;;;2.70;99.90;;;;;;4964599;28;20023;-72
2022/01/23 06:51:08;;;;;;;4.03;2.40;;;2.70;99.90;;;;;;4959508;28;20088;-72
2022/01/23 06:53:34;;;;;;;4.72;2.33;;;2.70;99.90;;;;;;4973672;28;20543;-71
2022/01/23 06:55:59;;;;;;;3.53;2.47;;;2.80;99.90;;;;;;4971275;28;20034;-72
2022/01/23 06:58:25;;;;;;;4.97;2.60;;;2.80;99.90;;;;;;4962957;28;20027;-76
2022/01/23 07:00:51;;;;;;;3.93;2.40;;;2.80;99.90;;;;;;4966975;28;20034;-73
2022/01/23 07:03:16;;;;;;;5.10;2.57;;;2.80;99.90;;;;;;4970960;28;20026;-72
2022/01/23 07:05:42;;;;;;;4.10;2.77;;;2.80;99.90;;;;;;4964787;28;20031;-73
2022/01/23 07:08:08;;;;;;;4.13;2.40;;;2.80;99.90;;;;;;4965164;28;20296;-72
2022/01/23 07:10:33;;;;;;;3.93;2.57;;;2.80;99.90;;;;;;4969102;28;20031;-76
2022/01/23 07:12:59;;;;;;;2.67;2.37;;;2.80;99.90;;;;;;4970616;28;20045;-75
2022/01/23 07:15:27;;;;;;;3.83;3.03;;;2.80;99.90;;;;;;4964114;28;20045;-72
2022/01/23 07:17:52;;;;;;;4.13;2.60;;;2.80;99.90;;;;;;4965767;28;20039;-73
2022/01/23 07:20:18;;;;;;;3.47;2.50;;;2.80;99.90;;;;;;4962131;28;20030;-72
2022/01/23 07:22:44;;;;;;;3.13;2.27;;;2.70;99.90;;;;;;4971982;28;20768;-73
2022/01/23 07:25:10;;;;;;;3.73;2.93;;;2.70;99.90;;;;;;4966288;28;20733;-72
2022/01/23 07:27:41;;;;;;;3.27;2.20;;;2.80;99.90;;;;;;4973065;28;20080;-77
2022/01/23 07:30:16;;;;;;;4.88;2.38;;;2.70;99.90;;;;;;4968183;28;20037;-72
2022/01/23 07:32:41;;;;;;;4.10;2.65;;;2.80;99.90;;;;;;4969246;28;20031;-75
2022/01/23 07:35:07;;;;;;;4.60;3.10;;;2.80;99.90;;;;;;4967288;28;20037;-73
2022/01/23 07:37:33;;;;;;;3.38;2.50;;;2.80;99.90;;;;;;4966227;28;20030;-73
2022/01/23 07:39:59;;;;;;;3.07;2.20;;;2.80;99.90;;;;;;4967951;28;20108;-72
2022/01/23 07:42:24;;;;;;;3.97;2.00;;;2.80;99.90;;;;;;4962976;28;20038;-77
2022/01/23 07:44:51;;;;;;;2.60;1.83;;;2.80;99.90;;;;;;4968854;28;20030;-80
2022/01/23 07:47:17;;;;;;;3.90;2.35;;;2.90;99.90;;;;;;4961549;28;20050;-75
2022/01/23 07:49:46;;;;;;;3.97;2.70;;;2.90;99.90;;;;;;4969000;28;20114;-72
2022/01/23 07:52:12;;;;;;;2.65;1.92;;;2.90;99.90;;;;;;4961423;28;20115;-81
2022/01/23 07:54:39;;;;;;;3.22;2.15;;;2.90;99.90;;;;;;4965450;28;20029;-74
2022/01/23 07:57:05;;;;;;;3.00;2.22;;;2.90;99.90;;;;;;4970150;28;21183;-75
2022/01/23 07:59:30;;;;;;;2.37;1.80;;;2.90;99.90;;;;;;4967154;28;20018;-74
2022/01/23 08:01:57;;;;;;;2.73;1.90;;;2.90;99.90;;;;;;4969272;28;20076;-79
2022/01/23 08:04:23;;;;;;;3.08;1.90;;;2.90;99.90;;;;;;4961766;28;20030;-73
2022/01/23 08:07:05;;;;;;;3.17;1.90;;;2.90;99.90;;;;;;4969601;28;20096;-72
2022/01/23 08:09:31;;;;;;;2.83;1.77;;;2.90;99.90;;;;;;4966047;28;20565;-74
2022/01/23 08:11:56;;;;;;;3.13;2.40;;;2.90;99.90;;;;;;4964745;28;20034;-73
2022/01/23 08:14:22;;;;;;;3.33;2.10;;;2.90;99.90;;;;;;4962175;28;20118;-72
2022/01/23 08:16:48;;;;;;;3.23;2.10;;;2.90;99.90;;;;;;4964031;28;20035;-72
2022/01/23 08:19:13;;;;;;;2.47;1.83;;;2.90;99.90;;;;;;4965073;28;20030;-73
2022/01/23 08:21:39;;;;;;;3.57;1.87;;;2.90;99.90;;;;;;4971903;28;20037;-73
2022/01/23 08:24:05;;;;;;;2.37;1.83;;;3.00;99.90;;;;;;4970525;28;20053;-74
2022/01/23 08:26:34;;;;;;;3.72;1.75;;;2.90;99.90;;;;;;4962437;28;20029;-72
2022/01/23 08:29:01;;;;;;;3.08;1.77;;;3.00;99.90;;;;;;4967609;28;20054;-72
2022/01/23 08:31:28;;;;;;;3.28;2.00;;;3.00;99.90;;;;;;4964856;28;20084;-73
2022/01/23 08:33:55;;;;;;;3.45;2.10;;;3.00;99.90;;;;;;4972163;28;20031;-72
2022/01/23 08:36:20;;;;;;;2.75;2.20;;;3.10;99.90;;;;;;4966467;28;20624;-73
2022/01/23 08:38:48;;;;;;;3.30;2.20;;;3.10;99.90;;;;;;4969004;28;20022;-73
2022/01/23 08:43:50;;;;;;;4.70;1.98;;;3.20;99.90;;;;;;4970574;28;20099;-72
2022/01/23 08:46:16;;;;;;;3.38;2.00;;;3.40;99.90;;;;;;4965049;28;20018;-72
2022/01/23 08:48:43;;;;;;;3.63;1.77;;;3.30;99.90;;;;;;4964741;28;20037;-75
2022/01/23 08:51:10;;;;;;;2.35;1.63;;;3.30;99.90;;;;;;4966325;28;20032;-75
2022/01/23 08:53:37;;;;;;;;;;;3.30;99.90;;;;;;4963307;28;20703;-76
2022/01/23 08:56:04;;;;;;;2.60;2.13;;;3.30;99.90;;;;;;4973445;28;19914;-73
2022/01/23 08:58:29;;;;;;;2.60;1.90;;;3.30;99.90;;;;;;4966963;28;20053;-79
2022/01/23 09:00:55;;;;;;;3.10;2.03;;;3.30;99.90;;;;;;4966958;28;20122;-77
2022/01/23 09:03:21;;;;;;;4.00;2.50;;;3.40;99.90;;;;;;4964684;28;20038;-74
2022/01/23 09:05:46;;;;;;;3.30;2.03;;;3.40;99.90;;;;;;4967263;28;20037;-73
2022/01/23 09:08:13;;;;;;;4.43;2.53;;;3.50;99.90;;;;;;4966990;28;20728;-73
2022/01/23 09:10:41;;;;;;;3.85;2.50;;;3.50;99.90;;;;;;4964580;28;20027;-76
2022/01/23 09:13:30;;;;;;;5.00;3.25;;;3.50;99.90;;;;;;4967264;28;20419;-73
2022/01/23 09:15:56;;;;;;;5.40;3.20;;;3.50;99.90;;;;;;4961496;28;20018;-74
2022/01/23 09:18:22;;;;;;;5.00;3.60;;;3.50;99.90;;;;;;4956447;28;20042;-74
2022/01/23 09:20:48;;;;;;;5.50;3.30;;;3.50;99.90;;;;;;4961743;28;20113;-73
2022/01/23 09:23:14;;;;;;;6.63;3.70;;;3.50;99.90;;;;;;4962305;28;20040;-73
2022/01/23 09:25:40;;;;;;;6.43;4.10;;;3.60;99.90;;;;;;4970115;28;20514;-75
2022/01/23 09:28:12;;;;;;;7.87;4.33;;;3.60;99.90;;;;;;4967128;28;20143;-75
2022/01/23 09:30:40;;;;;;;5.13;3.72;;;3.60;99.90;;;;;;4965711;28;20026;-75
2022/01/23 09:33:07;;;;;;;6.05;4.40;;;3.60;99.90;;;;;;4991614;28;20030;-78
2022/01/23 09:35:33;;;;;;;7.20;4.15;;;3.60;99.90;;;;;;4968718;28;20117;-75
2022/01/23 09:37:59;;;;;;;8.90;4.78;;;3.70;99.90;;;;;;4965774;28;20472;-76
2022/01/23 09:40:25;;;;;;;7.90;4.53;;;3.70;99.90;;;;;;4967277;28;20042;-72
2022/01/23 09:43:01;;;;;;;6.03;4.10;;;3.80;99.90;;;;;;4968847;28;20027;-72
2022/01/23 09:45:30;;;;;;;8.50;5.20;;;3.70;99.90;;;;;;4964372;28;20066;-72
2022/01/23 09:47:59;;;;;;;7.90;4.78;;;3.70;99.90;;;;;;4970691;28;20093;-75
2022/01/23 09:50:25;;;;;;;6.97;4.32;;;3.80;99.90;;;;;;4963730;28;20027;-73
2022/01/23 09:52:54;;;;;;;6.73;3.70;;;3.80;99.90;;;;;;4968698;28;20041;-73
2022/01/23 09:55:25;;;;;;;7.32;4.30;;;3.80;99.90;;;;;;4963456;28;20026;-79
2022/01/23 09:57:51;;;;;;;6.45;4.15;;;3.90;99.90;;;;;;4969568;28;20840;-72
2022/01/23 10:00:20;;;;;;;7.40;4.47;;;3.90;99.90;;;;;;4966611;28;20026;-72
2022/01/23 10:02:46;;;;;;;7.13;4.20;;;3.90;99.90;;;;;;4970775;28;20029;-74
2022/01/23 10:05:13;;;;;;;9.43;5.22;;;3.90;99.90;;;;;;4974014;28;20084;-79
2022/01/23 10:07:40;;;;;;;8.32;5.07;;;3.90;99.90;;;;;;4965980;28;20034;-72
2022/01/23 10:10:11;;;;;;;7.43;4.53;;;3.90;99.90;;;;;;4974969;28;20025;-74
2022/01/23 10:12:47;;;;;;;7.53;4.68;;;3.90;99.90;;;;;;4966442;28;20909;-73
2022/01/23 10:15:13;;;;;;;8.75;4.90;;;3.90;99.90;;;;;;4968905;28;20023;-75
2022/01/23 10:17:40;;;;;;;9.80;4.93;;;4.00;99.90;;;;;;4960838;28;20376;-75
2022/01/23 10:20:07;;;;;;;;;;;4.00;99.90;;;;;;4967801;28;20045;-75
2022/01/23 10:22:36;;;;;;;9.45;5.40;;;4.10;99.90;;;;;;4965459;28;19942;-70
2022/01/23 10:25:12;;;;;;;8.25;5.00;;;4.20;99.90;;;;;;4967425;28;20009;-77
2022/01/23 10:28:01;;;;;;;9.15;5.15;;;4.20;99.90;;;;;;4961964;28;20525;-71
2022/01/23 10:30:29;;;;;;;9.70;5.38;;;4.20;99.90;;;;;;4965400;28;20015;-73
2022/01/23 10:33:10;;;;;;;7.78;4.57;;;4.10;99.90;;;;;;4969435;28;20031;-70
2022/01/23 10:35:55;;;;;;;8.38;4.57;;;4.10;99.90;;;;;;4965869;28;20142;-73
2022/01/23 10:38:22;;;;;;;8.32;5.03;;;4.10;99.90;;;;;;4963896;28;20023;-71
2022/01/23 10:40:54;;;;;;;7.32;4.80;;;4.10;99.90;;;;;;4967234;28;20403;-73
2022/01/23 10:48:40;;;;;;;8.52;4.72;;;4.10;99.90;;;;;;4959078;28;20073;-71
2022/01/23 10:51:15;;;;;;;7.00;4.10;;;4.20;99.90;;;;;;4965205;28;20121;-74
2022/01/23 10:54:03;;;;;;;8.13;4.55;;;4.20;99.90;;;;;;4964609;28;20023;-71
2022/01/23 10:56:32;;;;;;;7.78;4.43;;;4.20;99.90;;;;;;4965654;28;20118;-75
2022/01/23 10:59:05;;;;;;;7.18;4.47;;;4.20;99.90;;;;;;4968553;28;20674;-71
2022/01/23 11:01:32;;;;;;;8.13;4.50;;;4.30;99.90;;;;;;4964272;28;20464;-72
2022/01/23 11:04:29;;;;;;;7.57;4.40;;;4.30;99.90;;;;;;4972722;28;20105;-74
2022/01/23 11:06:59;;;;;;;8.32;4.47;;;4.40;99.90;;;;;;4967795;28;20098;-70
2022/01/23 11:09:29;;;;;;;6.72;3.95;;;4.30;99.90;;;;;;4965989;28;20038;-74
2022/01/23 11:12:02;;;;;;;10.00;5.47;;;4.30;99.90;;;;;;4964595;28;20085;-76
2022/01/23 11:17:26;;;;;;;8.85;5.20;;;4.40;99.90;;;;;;4963760;28;20037;-71
2022/01/23 11:20:01;;;;;;;7.15;4.57;;;4.40;99.90;;;;;;4963591;28;20543;-73
2022/01/23 11:22:32;;;;;;;9.63;5.00;;;4.40;99.90;;;;;;4958211;28;20141;-72
2022/01/23 11:25:01;;;;;;;7.55;4.80;;;4.40;99.90;;;;;;4967647;28;20699;-79
2022/01/23 11:27:32;;;;;;;10.38;5.50;;;4.40;99.90;;;;;;4959998;28;20030;-78
2022/01/23 11:30:05;;;;;;;10.40;5.22;;;4.40;99.90;;;;;;4963781;28;20080;-71
2022/01/23 11:32:37;;;;;;;9.55;5.05;;;4.50;99.90;;;;;;4960182;28;20034;-72
2022/01/23 11:35:08;;;;;;;9.00;5.28;;;4.50;99.90;;;;;;4968587;28;20054;-72
2022/01/23 11:37:36;;;;;;;8.25;4.95;;;4.60;99.90;;;;;;4963239;28;20027;-74
2022/01/23 11:40:21;;;;;;;10.15;5.43;;;4.60;99.90;;;;;;4964794;28;20501;-77
2022/01/23 11:53:59;;;;;;;9.82;5.90;;;4.60;99.90;;;;;;4960884;28;20773;-76
2022/01/23 11:56:25;;;;;;;10.27;5.82;;;4.50;99.90;;;;;;4962180;28;20022;-75
2022/01/23 11:59:10;;;;;;;11.27;6.40;;;4.50;99.90;;;;;;4966775;28;20779;-72
2022/01/23 12:01:39;;;;;;;11.23;6.28;;;4.50;99.90;;;;;;4964826;28;20133;-71
2022/01/23 12:04:14;;;;;;;10.55;6.38;;;4.50;99.90;;;;;;4962421;28;20026;-71
2022/01/23 12:06:42;;;;;;;10.82;6.35;;;4.50;99.90;;;;;;4960209;28;20128;-73
2022/01/23 12:09:19;;;;;;;10.50;5.47;;;4.50;99.90;;;;;;4962084;28;20062;-73
2022/01/23 12:12:46;;;;;;;11.52;7.13;;;4.50;99.90;;;;;;4959200;28;20083;-71
2022/01/23 12:18:37;;;;;;;10.07;5.03;;;4.50;99.90;;;;;;4922312;29;20162;-71
2022/01/23 12:21:03;;;;;;;9.75;5.50;;;4.50;99.90;;;;;;4926014;29;20454;-71
2022/01/23 12:23:58;;;;;;;10.40;6.10;;;4.50;99.90;;;;;;4947763;28;20121;-76
2022/01/23 12:26:24;;;;;;;11.40;6.05;;;4.50;99.90;;;;;;4961439;28;20625;-71
2022/01/23 12:28:50;;;;;;;10.50;6.50;;;4.50;99.90;;;;;;4967234;28;20023;-71
2022/01/23 12:31:19;;;;;;;10.63;6.23;;;4.60;99.90;;;;;;4966838;28;20029;-72
2022/01/23 12:33:50;;;;;;;10.82;6.35;;;4.50;99.90;;;;;;4962130;28;20030;-71
2022/01/23 12:36:16;;;;;;;9.88;5.60;;;4.60;99.90;;;;;;4959561;28;20037;-70
2022/01/23 12:38:47;;;;;;;9.00;5.47;;;4.60;99.90;;;;;;4961454;28;20023;-76
2022/01/23 12:41:21;;;;;;;10.60;6.10;;;4.50;99.90;;;;;;4965182;28;20031;-70
2022/01/23 12:43:46;;;;;;;11.98;6.00;;;4.60;99.90;;;;;;4960385;28;20653;-71
2022/01/23 12:46:38;;;;;;;10.27;5.70;;;4.60;99.90;;;;;;4967906;28;20513;-70
2022/01/23 12:49:20;;;;;;;10.52;6.22;;;4.70;99.90;;;;;;4963488;28;20026;-72
2022/01/23 12:51:57;;;;;;;10.00;5.95;;;4.70;99.90;;;;;;4957327;28;20365;-74
2022/01/23 12:54:28;;;;;;;10.05;5.95;;;4.70;99.90;;;;;;4965057;28;20031;-73
2022/01/23 12:56:56;;;;;;;9.80;6.30;;;4.70;99.90;;;;;;4957462;28;20030;-71
2022/01/23 12:59:30;;;;;;;10.45;5.80;;;4.70;99.90;;;;;;4965832;28;20018;-73
2022/01/23 13:02:06;;;;;;;9.45;5.68;;;4.70;99.90;;;;;;4962767;28;20080;-71
2022/01/23 13:04:35;;;;;;;10.05;6.10;;;4.70;99.90;;;;;;4960349;28;20023;-72
2022/01/23 13:07:15;;;;;;;11.38;6.10;;;4.70;99.90;;;;;;4969514;28;20023;-71
2022/01/23 13:09:59;;;;;;;11.05;5.95;;;4.60;99.90;;;;;;4970319;28;20032;-70
2022/01/23 13:34:48;;;;;;;12.55;6.57;;;4.50;99.90;;;;;;4974005;28;20049;-71
2022/01/23 13:37:15;;;;;;;9.57;5.97;;;4.40;99.90;;;;;;4957304;28;20065;-73
2022/01/23 13:39:51;;;;;;;;;;;4.40;99.90;;;;;;4968403;28;20407;-72
2022/01/23 13:54:18;;;;;;;9.85;6.15;;;4.40;99.90;;;;;;4967218;28;20037;-71
2022/01/23 14:02:28;;;;;;;9.02;5.45;;;4.40;99.90;;;;;;4961821;28;20089;-74
2022/01/23 14:05:11;;;;;;;8.85;5.63;;;4.40;99.90;;;;;;4970089;28;20030;-72
2022/01/23 14:07:38;;;;;;;9.15;5.35;;;4.40;99.90;;;;;;4959013;28;20045;-71
2022/01/23 14:10:23;;;;;;;12.32;6.22;;;4.40;99.90;;;;;;4970353;28;20023;-71
2022/01/23 14:12:51;;;;;;;10.40;5.15;;;4.50;99.90;;;;;;4962046;28;20047;-71
2022/01/23 14:15:28;;;;;;;10.52;5.95;;;4.50;99.90;;;;;;4965925;28;20053;-72
2022/01/23 14:18:09;;;;;;;8.50;5.40;;;4.50;99.90;;;;;;4964198;28;20022;-75
2022/01/23 14:20:44;;;;;;;8.27;5.47;;;4.50;99.90;;;;;;4965555;28;20026;-73
2022/01/23 14:23:15;;;;;;;8.82;5.32;;;4.50;99.90;;;;;;4970564;28;20015;-71
2022/01/23 14:25:59;;;;;;;7.70;5.18;;;4.50;99.90;;;;;;4959299;28;20034;-72
2022/01/23 14:28:34;;;;;;;10.63;5.50;;;4.50;99.90;;;;;;4963445;28;20101;-72
2022/01/23 14:31:10;;;;;;;8.65;5.50;;;4.50;99.90;;;;;;4964518;28;20041;-71
2022/01/23 14:33:37;;;;;;;9.77;6.00;;;4.50;99.90;;;;;;4958904;28;20518;-71
2022/01/23 14:36:17;;;;;;;10.30;6.18;;;4.50;99.90;;;;;;4966494;28;20702;-71
2022/01/23 14:39:06;;;;;;;8.70;5.85;;;4.50;99.90;;;;;;4957422;28;20446;-71
2022/01/23 14:41:35;;;;;;;8.55;5.60;;;4.40;99.90;;;;;;4960457;28;20023;-71
2022/01/23 14:44:13;;;;;;;8.13;5.13;;;4.40;99.90;;;;;;4967550;28;20032;-71
2022/01/23 14:46:38;;;;;;;8.07;5.35;;;4.40;99.90;;;;;;4958255;28;20077;-70
2022/01/23 14:49:10;;;;;;;9.30;5.73;;;4.40;99.90;;;;;;4964848;28;20544;-70
2022/01/23 14:51:38;;;;;;;9.30;5.40;;;4.40;99.90;;;;;;4958962;28;20507;-71
2022/01/23 14:54:04;;;;;;;9.00;5.05;;;4.40;99.90;;;;;;4967891;28;20081;-71
2022/01/23 14:56:32;;;;;;;7.97;5.28;;;4.40;99.90;;;;;;4962787;28;20427;-72
2022/01/23 14:58:58;;;;;;;9.18;4.97;;;4.30;99.90;;;;;;4964071;28;20153;-73
2022/01/23 15:01:24;;;;;;;6.93;4.87;;;4.20;99.90;;;;;;4961355;28;20153;-71
2022/01/23 15:03:52;;;;;;;10.80;6.27;;;4.20;99.90;;;;;;4957532;28;20308;-71
2022/01/23 15:06:21;;;;;;;7.70;5.07;;;4.20;99.90;;;;;;4963789;28;20274;-74
2022/01/23 15:08:48;;;;;;;9.63;5.18;;;4.20;99.90;;;;;;4958930;28;20026;-72
2022/01/23 15:11:14;;;;;;;9.43;5.97;;;4.20;99.90;;;;;;4965956;28;20030;-71
2022/01/23 15:13:40;;;;;;;11.98;5.47;;;4.10;99.90;;;;;;4960039;28;20042;-73
2022/01/23 15:16:06;;;;;;;11.77;6.17;;;4.10;99.90;;;;;;4966487;28;20042;-71
2022/01/23 15:18:33;;;;;;;8.77;5.10;;;4.10;99.90;;;;;;4960950;28;20023;-71
2022/01/23 15:20:59;;;;;;;9.13;5.72;;;4.10;99.90;;;;;;4965440;28;20476;-71
2022/01/23 15:23:25;;;;;;;10.67;6.20;;;4.10;99.90;;;;;;4962924;28;20022;-73
2022/01/23 15:25:51;;;;;;;10.43;5.73;;;4.10;99.90;;;;;;4959553;28;20103;-71
2022/01/23 15:28:16;;;;;;;9.07;5.30;;;4.10;99.90;;;;;;4961182;28;20108;-72
2022/01/23 15:30:44;;;;;;;9.03;5.57;;;4.10;99.90;;;;;;4958134;28;20059;-71
2022/01/23 15:33:10;;;;;;;8.52;5.30;;;4.10;99.90;;;;;;4963558;28;20033;-71
2022/01/23 15:35:44;;;;;;;9.25;5.65;;;4.00;99.90;;;;;;4961104;28;20030;-71
2022/01/23 15:38:09;;;;;;;8.63;5.47;;;4.00;99.90;;;;;;4962888;28;20040;-71
2022/01/23 15:40:35;;;;;;;9.80;5.00;;;4.00;99.90;;;;;;4960660;28;20090;-72
2022/01/23 15:43:01;;;;;;;8.63;4.90;;;4.00;99.90;;;;;;4961574;28;20379;-71
2022/01/23 15:45:27;;;;;;;8.70;5.80;;;4.00;99.90;;;;;;4965904;28;20105;-77
2022/01/23 15:47:53;;;;;;;8.30;5.53;;;4.00;99.90;;;;;;4957805;28;20984;-73
2022/01/23 15:50:19;;;;;;;10.00;6.07;;;4.00;99.90;;;;;;4965418;28;20029;-73
2022/01/23 15:52:46;;;;;;;11.48;6.88;;;4.00;99.90;;;;;;4959283;28;20119;-70
2022/01/23 15:55:13;;;;;;;;;;;4.00;99.90;;;;;;4961391;28;20105;-72
2022/01/23 15:57:40;;;;;;;10.85;5.97;;;4.00;99.90;;;;;;4961233;28;19910;-72
2022/01/23 16:00:09;;;;;;;10.20;6.30;;;4.00;99.90;;;;;;4960532;28;20018;-77
2022/01/23 16:02:36;;;;;;;11.15;6.63;;;4.00;99.90;;;;;;4961024;28;20153;-72
2022/01/23 16:05:03;;;;;;;;;;;4.00;99.90;;;;;;4959765;28;20061;-76
2022/01/23 16:07:29;;;;;;;9.80;5.90;;;4.00;99.90;;;;;;4962161;28;20030;-71
2022/01/23 16:09:54;;;;;;;10.50;6.25;;;4.00;99.90;;;;;;4957583;28;21073;-71
2022/01/23 16:12:20;;;;;;;10.07;6.10;;;4.00;99.90;;;;;;4964107;28;20082;-72
2022/01/23 16:14:46;;;;;;;11.87;5.97;;;4.00;99.90;;;;;;4959181;28;20026;-72
2022/01/23 16:17:12;;;;;;;11.17;6.83;;;3.90;99.90;;;;;;4962364;28;20023;-72
2022/01/23 16:19:37;;;;;;;9.07;5.27;;;4.00;99.90;;;;;;4959112;28;20027;-74
2022/01/23 16:22:04;;;;;;;10.57;6.67;;;4.00;99.90;;;;;;4960537;28;20605;-71
2022/01/23 16:24:31;;;;;;;;;;;4.00;99.90;;;;;;4970331;28;20030;-75
2022/01/23 16:26:58;;;;;;;8.88;5.68;;;4.00;99.90;;;;;;4960881;28;20422;-72
2022/01/23 16:29:25;;;;;;;;;;;4.00;99.90;;;;;;4963938;28;20054;-72
2022/01/23 16:31:53;;;;;;;9.52;4.95;;;4.00;99.90;;;;;;4957916;28;19906;-72
2022/01/23 16:34:19;;;;;;;8.68;5.38;;;4.10;99.90;;;;;;4961526;28;20086;-74
2022/01/23 16:36:45;;;;;;;8.27;5.00;;;4.00;99.90;;;;;;4953150;28;20027;-72